createdAt,value
2022-11-23T00:00:09.854Z,0
2022-11-23T00:01:09.851Z,0
2022-11-23T00:02:09.898Z,0
2022-11-23T00:03:09.857Z,0
2022-11-23T00:04:09.866Z,0
2022-11-23T00:05:09.861Z,0
2022-11-23T00:06:09.858Z,0
2022-11-23T00:07:09.931Z,0
2022-11-23T00:08:09.857Z,0
2022-11-23T00:09:09.980Z,0
2022-11-23T00:10:09.868Z,0
2022-11-23T00:11:09.869Z,0
2022-11-23T00:12:09.864Z,0
2022-11-23T00:13:09.898Z,0
2022-11-23T00:14:09.870Z,0
2022-11-23T00:15:09.876Z,0
2022-11-23T00:16:09.879Z,0
2022-11-23T00:17:57.530Z,0
2022-11-23T00:18:09.885Z,0
2022-11-23T00:19:09.880Z,0
2022-11-23T00:20:09.881Z,0
2022-11-23T00:21:09.891Z,0
2022-11-23T00:22:09.885Z,0
2022-11-23T00:23:09.882Z,0
2022-11-23T00:24:09.883Z,0
2022-11-23T00:25:09.996Z,0
2022-11-23T00:26:09.894Z,0
2022-11-23T00:27:09.891Z,0
2022-11-23T00:28:09.894Z,0
2022-11-23T00:29:09.909Z,0
2022-11-23T00:30:09.897Z,0
2022-11-23T00:31:09.897Z,0
2022-11-23T00:32:09.890Z,0
2022-11-23T00:33:09.906Z,0
2022-11-23T00:34:09.899Z,0
2022-11-23T00:35:09.902Z,0
2022-11-23T00:36:09.905Z,0
2022-11-23T00:37:09.908Z,0
2022-11-23T00:38:09.910Z,0
2022-11-23T00:39:09.910Z,0
2022-11-23T00:40:09.916Z,0
2022-11-23T00:41:09.940Z,0
2022-11-23T00:42:09.923Z,0
2022-11-23T00:43:09.916Z,0
2022-11-23T00:44:09.911Z,0
2022-11-23T00:45:09.923Z,0
2022-11-23T00:46:09.923Z,0
2022-11-23T00:47:09.924Z,0
2022-11-23T00:48:09.924Z,0
2022-11-23T00:49:09.924Z,0
2022-11-23T00:50:09.913Z,0
2022-11-23T00:51:09.920Z,0
2022-11-23T00:52:09.927Z,0
2022-11-23T00:53:09.928Z,0
2022-11-23T00:54:09.929Z,0
2022-11-23T00:55:09.932Z,0
2022-11-23T00:56:09.933Z,0
2022-11-23T00:57:09.954Z,0
2022-11-23T00:58:09.933Z,0
2022-11-23T00:59:09.934Z,0
2022-11-23T01:00:09.930Z,0
2022-11-23T01:01:10.062Z,0
2022-11-23T01:02:09.936Z,0
2022-11-23T01:03:09.943Z,0
2022-11-23T01:04:09.942Z,0
2022-11-23T01:05:09.952Z,0
2022-11-23T01:06:09.947Z,0
2022-11-23T01:07:09.954Z,0
2022-11-23T01:08:09.947Z,0
2022-11-23T01:09:09.949Z,0
2022-11-23T01:10:09.957Z,0
2022-11-23T01:11:09.952Z,0
2022-11-23T01:12:09.959Z,0
2022-11-23T01:13:09.983Z,0
2022-11-23T01:14:09.962Z,0
2022-11-23T01:15:09.966Z,0
2022-11-23T01:16:09.966Z,0
2022-11-23T01:17:09.959Z,0
2022-11-23T01:18:09.959Z,0
2022-11-23T01:19:09.964Z,0
2022-11-23T01:20:09.971Z,0
2022-11-23T01:21:09.965Z,0
2022-11-23T01:22:09.966Z,0
2022-11-23T01:23:09.969Z,0
2022-11-23T01:24:09.954Z,0
2022-11-23T01:25:09.970Z,0
2022-11-23T01:26:09.964Z,0
2022-11-23T01:27:09.971Z,0
2022-11-23T01:28:09.981Z,0
2022-11-23T01:29:09.994Z,0
2022-11-23T01:30:09.974Z,0
2022-11-23T01:31:09.984Z,0
2022-11-23T01:32:09.995Z,0
2022-11-23T01:33:09.976Z,0
2022-11-23T01:34:09.978Z,0
2022-11-23T01:35:09.987Z,0
2022-11-23T01:36:09.986Z,0
2022-11-23T01:37:09.984Z,0
2022-11-23T01:38:13.826Z,0
2022-11-23T01:39:09.983Z,0
2022-11-23T01:40:09.978Z,0
2022-11-23T01:41:09.986Z,0
2022-11-23T01:42:12.786Z,0
2022-11-23T01:43:09.984Z,0
2022-11-23T01:44:09.996Z,0
2022-11-23T01:45:10.129Z,0
2022-11-23T01:46:09.987Z,0
2022-11-23T01:47:09.981Z,0
2022-11-23T01:48:09.983Z,0
2022-11-23T01:49:09.994Z,0
2022-11-23T01:50:09.990Z,0
2022-11-23T01:51:10.001Z,0
2022-11-23T01:52:09.999Z,0
2022-11-23T01:53:10.002Z,0
2022-11-23T01:54:10.017Z,0
2022-11-23T01:55:09.999Z,0
2022-11-23T01:56:10.004Z,0
2022-11-23T01:57:10.006Z,0
2022-11-23T01:58:09.998Z,0
2022-11-23T01:59:09.999Z,0
2022-11-23T02:00:10.001Z,0
2022-11-23T02:01:10.078Z,0
2022-11-23T02:02:10.012Z,0
2022-11-23T02:03:10.009Z,0
2022-11-23T02:04:10.008Z,0
2022-11-23T02:05:10.011Z,0
2022-11-23T02:06:10.005Z,0
2022-11-23T02:07:10.030Z,0
2022-11-23T02:08:10.008Z,0
2022-11-23T02:09:10.005Z,0
2022-11-23T02:10:10.009Z,0
2022-11-23T02:11:10.013Z,0
2022-11-23T02:12:10.008Z,0
2022-11-23T02:13:10.009Z,0
2022-11-23T02:14:10.019Z,0
2022-11-23T02:15:10.009Z,0
2022-11-23T02:16:10.019Z,0
2022-11-23T02:17:10.031Z,0
2022-11-23T02:18:10.012Z,0
2022-11-23T02:19:10.019Z,0
2022-11-23T02:20:10.011Z,0
2022-11-23T02:21:10.021Z,0
2022-11-23T02:22:10.028Z,0
2022-11-23T02:23:10.016Z,0
2022-11-23T02:24:10.035Z,0
2022-11-23T02:25:10.018Z,0
2022-11-23T02:26:10.022Z,0
2022-11-23T02:27:10.019Z,0
2022-11-23T02:28:10.018Z,0
2022-11-23T02:29:10.017Z,0
2022-11-23T02:30:10.029Z,0
2022-11-23T02:31:10.021Z,0
2022-11-23T02:32:10.031Z,0
2022-11-23T02:33:10.037Z,0
2022-11-23T02:34:10.027Z,0
2022-11-23T02:35:10.030Z,0
2022-11-23T02:36:10.023Z,0
2022-11-23T02:37:10.032Z,0
2022-11-23T02:38:10.018Z,0
2022-11-23T02:39:10.029Z,0
2022-11-23T02:40:10.026Z,0
2022-11-23T02:41:10.024Z,0
2022-11-23T02:42:10.030Z,0
2022-11-23T02:43:10.031Z,0
2022-11-23T02:44:10.028Z,0
2022-11-23T02:45:10.039Z,0
2022-11-23T02:46:10.023Z,0
2022-11-23T02:47:10.129Z,0
2022-11-23T02:48:10.038Z,0
2022-11-23T02:49:41.621Z,0
2022-11-23T02:50:10.028Z,0
2022-11-23T02:51:10.030Z,0
2022-11-23T02:52:10.029Z,0
2022-11-23T02:53:10.030Z,0
2022-11-23T02:54:10.049Z,0
2022-11-23T02:55:10.025Z,0
2022-11-23T02:56:10.029Z,0
2022-11-23T02:57:10.042Z,0
2022-11-23T02:58:10.028Z,0
2022-11-23T02:59:10.034Z,0
2022-11-23T03:00:10.033Z,0
2022-11-23T03:01:10.097Z,0
2022-11-23T03:02:10.032Z,0
2022-11-23T03:03:10.033Z,0
2022-11-23T03:04:10.033Z,0
2022-11-23T03:05:10.058Z,0
2022-11-23T03:06:10.039Z,0
2022-11-23T03:07:10.071Z,0
2022-11-23T03:08:10.033Z,0
2022-11-23T03:09:10.044Z,0
2022-11-23T03:10:10.035Z,0
2022-11-23T03:11:10.045Z,0
2022-11-23T03:12:10.044Z,0
2022-11-23T03:13:10.043Z,0
2022-11-23T03:14:10.047Z,0
2022-11-23T03:15:10.045Z,0
2022-11-23T03:16:10.051Z,0
2022-11-23T03:17:10.053Z,0
2022-11-23T03:18:10.053Z,0
2022-11-23T03:19:10.059Z,0
2022-11-23T03:20:10.046Z,0
2022-11-23T03:21:10.096Z,0
2022-11-23T03:22:10.069Z,0
2022-11-23T03:23:10.064Z,0
2022-11-23T03:24:10.060Z,0
2022-11-23T03:25:10.051Z,0
2022-11-23T03:26:13.005Z,0
2022-11-23T03:27:10.063Z,0
2022-11-23T03:28:10.060Z,0
2022-11-23T03:29:10.067Z,0
2022-11-23T03:30:10.060Z,0
2022-11-23T03:31:10.062Z,0
2022-11-23T03:32:10.068Z,0
2022-11-23T03:33:10.078Z,0
2022-11-23T03:34:10.068Z,0
2022-11-23T03:35:10.062Z,0
2022-11-23T03:36:10.071Z,0
2022-11-23T03:37:10.091Z,0
2022-11-23T03:38:10.070Z,0
2022-11-23T03:39:10.080Z,0
2022-11-23T03:40:10.069Z,0
2022-11-23T03:41:10.080Z,0
2022-11-23T03:42:10.072Z,0
2022-11-23T03:43:10.077Z,0
2022-11-23T03:44:10.092Z,0
2022-11-23T03:45:10.084Z,0
2022-11-23T03:46:10.083Z,0
2022-11-23T03:47:10.090Z,0
2022-11-23T03:48:10.087Z,0
2022-11-23T03:49:10.083Z,0
2022-11-23T03:50:10.090Z,0
2022-11-23T03:51:10.097Z,0
2022-11-23T03:52:10.097Z,0
2022-11-23T03:53:10.113Z,0
2022-11-23T03:54:10.102Z,0
2022-11-23T03:55:10.097Z,0
2022-11-23T03:56:10.101Z,0
2022-11-23T03:57:10.109Z,0
2022-11-23T03:58:10.096Z,0
2022-11-23T03:59:10.104Z,0
2022-11-23T04:00:10.107Z,0
2022-11-23T04:01:10.203Z,0
2022-11-23T04:02:10.104Z,0
2022-11-23T04:03:10.116Z,0
2022-11-23T04:04:10.108Z,0
2022-11-23T04:05:10.111Z,0
2022-11-23T04:06:10.106Z,0
2022-11-23T04:07:10.133Z,0
2022-11-23T04:08:10.123Z,0
2022-11-23T04:09:10.193Z,0
2022-11-23T04:10:10.113Z,0
2022-11-23T04:11:10.130Z,0
2022-11-23T04:12:10.120Z,0
2022-11-23T04:13:10.128Z,0
2022-11-23T04:14:10.127Z,0
2022-11-23T04:15:10.135Z,0
2022-11-23T04:16:10.139Z,0
2022-11-23T04:17:10.130Z,0
2022-11-23T04:18:10.129Z,0
2022-11-23T04:19:10.142Z,0
2022-11-23T04:20:10.135Z,0
2022-11-23T04:21:10.141Z,0
2022-11-23T04:22:10.138Z,0
2022-11-23T04:23:13.217Z,0
2022-11-23T04:24:10.136Z,0
2022-11-23T04:25:10.162Z,0
2022-11-23T04:26:10.134Z,0
2022-11-23T04:27:10.143Z,0
2022-11-23T04:28:10.143Z,0
2022-11-23T04:29:10.143Z,0
2022-11-23T04:30:10.147Z,0
2022-11-23T04:31:10.142Z,0
2022-11-23T04:32:10.145Z,0
2022-11-23T04:33:10.150Z,0
2022-11-23T04:34:10.147Z,0
2022-11-23T04:35:10.149Z,0
2022-11-23T04:36:10.151Z,0
2022-11-23T04:37:13.180Z,0
2022-11-23T04:38:10.148Z,0
2022-11-23T04:39:10.165Z,0
2022-11-23T04:40:10.153Z,0
2022-11-23T04:41:10.177Z,0
2022-11-23T04:42:10.160Z,0
2022-11-23T04:43:10.160Z,0
2022-11-23T04:44:10.170Z,0
2022-11-23T04:45:10.161Z,0
2022-11-23T04:46:10.181Z,0
2022-11-23T04:47:10.167Z,0
2022-11-23T04:48:10.161Z,0
2022-11-23T04:49:10.175Z,0
2022-11-23T04:50:10.160Z,0
2022-11-23T04:51:10.173Z,0
2022-11-23T04:52:10.178Z,0
2022-11-23T04:53:10.167Z,0
2022-11-23T04:54:10.176Z,0
2022-11-23T04:55:10.181Z,0
2022-11-23T04:56:10.164Z,0
2022-11-23T04:57:10.198Z,0
2022-11-23T04:58:10.176Z,0
2022-11-23T04:59:10.176Z,0
2022-11-23T05:00:10.179Z,0
2022-11-23T05:01:10.275Z,0
2022-11-23T05:02:10.170Z,0
2022-11-23T05:03:10.179Z,0
2022-11-23T05:04:13.551Z,0
2022-11-23T05:05:10.186Z,0
2022-11-23T05:06:10.181Z,0
2022-11-23T05:07:10.233Z,0
2022-11-23T05:08:10.190Z,0
2022-11-23T05:09:10.188Z,0
2022-11-23T05:10:10.186Z,0
2022-11-23T05:11:10.186Z,0
2022-11-23T05:12:10.196Z,0
2022-11-23T05:13:10.214Z,0
2022-11-23T05:14:10.186Z,0
2022-11-23T05:15:10.189Z,0
2022-11-23T05:16:10.196Z,0
2022-11-23T05:17:10.194Z,0
2022-11-23T05:18:10.206Z,0
2022-11-23T05:19:10.203Z,0
2022-11-23T05:20:10.208Z,0
2022-11-23T05:21:10.192Z,0
2022-11-23T05:22:10.207Z,0
2022-11-23T05:23:10.205Z,0
2022-11-23T05:24:10.202Z,0
2022-11-23T05:25:10.214Z,0
2022-11-23T05:26:10.208Z,0
2022-11-23T05:27:10.210Z,0
2022-11-23T05:28:30.432Z,0
2022-11-23T05:29:10.231Z,0
2022-11-23T05:30:10.210Z,0
2022-11-23T05:31:10.217Z,0
2022-11-23T05:32:10.219Z,0
2022-11-23T05:33:10.219Z,0
2022-11-23T05:34:10.213Z,0
2022-11-23T05:35:10.214Z,0
2022-11-23T05:36:10.215Z,0
2022-11-23T05:37:10.229Z,0
2022-11-23T05:38:10.223Z,0
2022-11-23T05:39:10.211Z,0
2022-11-23T05:40:10.227Z,0
2022-11-23T05:41:10.214Z,0
2022-11-23T05:42:10.213Z,0
2022-11-23T05:43:10.222Z,0
2022-11-23T05:44:10.222Z,0
2022-11-23T05:45:11.797Z,0
2022-11-23T05:46:10.225Z,0
2022-11-23T05:47:10.234Z,0
2022-11-23T05:48:10.229Z,0
2022-11-23T05:49:10.231Z,0
2022-11-23T05:50:10.233Z,0
2022-11-23T05:51:10.238Z,0
2022-11-23T05:52:10.236Z,0
2022-11-23T05:53:10.237Z,0
2022-11-23T05:54:10.246Z,0
2022-11-23T05:55:10.234Z,0
2022-11-23T05:56:10.243Z,0
2022-11-23T05:57:10.241Z,0
2022-11-23T05:58:10.240Z,0
2022-11-23T05:59:10.254Z,0
2022-11-23T06:00:10.243Z,0
2022-11-23T06:01:10.274Z,0
2022-11-23T06:02:10.254Z,0
2022-11-23T06:03:10.250Z,0
2022-11-23T06:04:10.303Z,0
2022-11-23T06:05:10.249Z,0
2022-11-23T06:06:10.248Z,0
2022-11-23T06:07:10.297Z,0
2022-11-23T06:08:10.250Z,0
2022-11-23T06:09:10.254Z,0
2022-11-23T06:10:10.243Z,0
2022-11-23T06:11:10.254Z,0
2022-11-23T06:12:10.259Z,0
2022-11-23T06:13:10.260Z,0
2022-11-23T06:14:14.152Z,0
2022-11-23T06:15:10.261Z,0
2022-11-23T06:16:10.255Z,0
2022-11-23T06:17:10.286Z,0
2022-11-23T06:18:10.268Z,0
2022-11-23T06:19:10.277Z,0
2022-11-23T06:20:10.271Z,0
2022-11-23T06:21:10.263Z,0
2022-11-23T06:22:10.272Z,0
2022-11-23T06:23:10.272Z,0
2022-11-23T06:24:10.270Z,0
2022-11-23T06:25:10.273Z,0
2022-11-23T06:26:10.278Z,0
2022-11-23T06:27:12.947Z,0
2022-11-23T06:28:10.297Z,0
2022-11-23T06:29:10.274Z,0
2022-11-23T06:30:10.282Z,0
2022-11-23T06:31:10.296Z,0
2022-11-23T06:32:10.274Z,0
2022-11-23T06:33:10.301Z,0
2022-11-23T06:34:10.282Z,0
2022-11-23T06:35:10.291Z,0
2022-11-23T06:36:10.280Z,0
2022-11-23T06:37:10.273Z,0
2022-11-23T06:38:10.291Z,0
2022-11-23T06:39:10.288Z,0
2022-11-23T06:40:10.285Z,0
2022-11-23T06:41:10.289Z,0
2022-11-23T06:42:36.981Z,0
2022-11-23T06:43:10.298Z,0
2022-11-23T06:44:10.287Z,0
2022-11-23T06:45:10.287Z,0
2022-11-23T06:46:10.289Z,0
2022-11-23T06:47:13.978Z,0
2022-11-23T06:48:10.291Z,0
2022-11-23T06:49:10.327Z,0
2022-11-23T06:50:10.285Z,0
2022-11-23T06:51:10.294Z,0
2022-11-23T06:52:10.299Z,0
2022-11-23T06:53:10.292Z,0
2022-11-23T06:54:10.296Z,0
2022-11-23T06:55:10.303Z,0
2022-11-23T06:56:10.303Z,0
2022-11-23T06:57:10.307Z,0
2022-11-23T06:58:10.297Z,0
2022-11-23T06:59:10.299Z,0
2022-11-23T07:00:10.299Z,0
2022-11-23T07:01:10.364Z,0
2022-11-23T07:02:10.316Z,0
2022-11-23T07:03:10.354Z,0
2022-11-23T07:04:10.309Z,0
2022-11-23T07:05:10.318Z,0
2022-11-23T07:06:10.306Z,0
2022-11-23T07:07:10.397Z,0
2022-11-23T07:08:10.303Z,0
2022-11-23T07:09:10.300Z,0
2022-11-23T07:10:10.307Z,0
2022-11-23T07:11:10.309Z,0
2022-11-23T07:12:10.302Z,0
2022-11-23T07:13:10.302Z,0
2022-11-23T07:14:10.309Z,0
2022-11-23T07:15:10.313Z,0
2022-11-23T07:16:10.304Z,0
2022-11-23T07:17:12.697Z,0
2022-11-23T07:18:10.304Z,0
2022-11-23T07:19:10.301Z,0
2022-11-23T07:20:10.307Z,0
2022-11-23T07:21:10.334Z,0
2022-11-23T07:22:10.306Z,0
2022-11-23T07:23:10.307Z,0
2022-11-23T07:24:10.312Z,0
2022-11-23T07:25:10.315Z,0
2022-11-23T07:26:10.311Z,0
2022-11-23T07:27:10.313Z,0
2022-11-23T07:28:10.321Z,0
2022-11-23T07:29:10.314Z,0
2022-11-23T07:30:10.320Z,0
2022-11-23T07:31:10.306Z,0
2022-11-23T07:32:10.309Z,0
2022-11-23T07:33:10.310Z,0
2022-11-23T07:34:10.316Z,0
2022-11-23T07:35:10.303Z,0
2022-11-23T07:36:10.312Z,0
2022-11-23T07:37:10.341Z,0
2022-11-23T07:38:10.312Z,0
2022-11-23T07:39:10.319Z,0
2022-11-23T07:40:10.311Z,0
2022-11-23T07:41:10.308Z,0
2022-11-23T07:42:31.452Z,0
2022-11-23T07:43:10.320Z,0
2022-11-23T07:44:10.308Z,0
2022-11-23T07:45:10.315Z,0
2022-11-23T07:46:10.315Z,0
2022-11-23T07:47:10.319Z,0
2022-11-23T07:48:10.325Z,0
2022-11-23T07:49:10.317Z,0
2022-11-23T07:50:10.316Z,0
2022-11-23T07:51:10.320Z,0
2022-11-23T07:52:10.304Z,0
2022-11-23T07:53:10.337Z,0
2022-11-23T07:54:10.319Z,0
2022-11-23T07:55:10.317Z,0
2022-11-23T07:56:10.319Z,0
2022-11-23T07:57:10.312Z,0
2022-11-23T07:58:10.317Z,0
2022-11-23T07:59:10.316Z,0
2022-11-23T08:00:10.323Z,0
2022-11-23T08:01:10.318Z,0
2022-11-23T08:02:10.902Z,0
2022-11-23T08:03:38.980Z,0
2022-11-23T08:04:10.322Z,0
2022-11-23T08:05:14.135Z,0
2022-11-23T08:06:10.330Z,0
2022-11-23T08:07:10.368Z,0
2022-11-23T08:08:10.312Z,0
2022-11-23T08:09:10.358Z,0
2022-11-23T08:10:10.338Z,0
2022-11-23T08:11:10.325Z,0
2022-11-23T08:12:10.326Z,0
2022-11-23T08:13:10.321Z,0
2022-11-23T08:14:10.323Z,0
2022-11-23T08:15:10.327Z,0
2022-11-23T08:16:10.329Z,0
2022-11-23T08:17:10.326Z,0
2022-11-23T08:18:10.322Z,0
2022-11-23T08:19:10.324Z,0
2022-11-23T08:20:10.321Z,0
2022-11-23T08:21:10.326Z,0
2022-11-23T08:22:13.456Z,0
2022-11-23T08:23:10.325Z,0
2022-11-23T08:24:10.330Z,0
2022-11-23T08:25:10.353Z,0
2022-11-23T08:26:13.536Z,0
2022-11-23T08:27:10.330Z,0
2022-11-23T08:28:10.346Z,0
2022-11-23T08:29:10.333Z,0
2022-11-23T08:30:10.337Z,0
2022-11-23T08:31:10.334Z,0
2022-11-23T08:32:10.330Z,0
2022-11-23T08:33:10.332Z,0
2022-11-23T08:34:10.328Z,0
2022-11-23T08:35:10.334Z,0
2022-11-23T08:36:10.336Z,0
2022-11-23T08:37:10.327Z,0
2022-11-23T08:38:10.334Z,0
2022-11-23T08:39:10.328Z,0
2022-11-23T08:40:10.328Z,0
2022-11-23T08:41:10.353Z,0
2022-11-23T08:42:10.332Z,0
2022-11-23T08:43:10.328Z,0
2022-11-23T08:44:10.338Z,0
2022-11-23T08:45:10.342Z,0
2022-11-23T08:46:11.323Z,0
2022-11-23T08:47:10.326Z,0
2022-11-23T08:48:10.332Z,0
2022-11-23T08:49:10.331Z,0
2022-11-23T08:50:10.336Z,0
2022-11-23T08:51:10.331Z,0
2022-11-23T08:52:10.332Z,0
2022-11-23T08:53:10.337Z,0
2022-11-23T08:54:10.335Z,0
2022-11-23T08:55:10.331Z,0
2022-11-23T08:56:10.356Z,0
2022-11-23T08:57:10.357Z,0
2022-11-23T08:58:13.303Z,0
2022-11-23T08:59:10.344Z,0
2022-11-23T09:00:10.328Z,0
2022-11-23T09:01:10.389Z,0
2022-11-23T09:02:10.335Z,0
2022-11-23T09:03:10.343Z,0
2022-11-23T09:04:10.338Z,0
2022-11-23T09:05:10.328Z,0
2022-11-23T09:06:10.340Z,0
2022-11-23T09:07:10.374Z,0
2022-11-23T09:08:10.338Z,0
2022-11-23T09:09:10.341Z,0
2022-11-23T09:10:13.696Z,0
2022-11-23T09:11:10.333Z,0
2022-11-23T09:12:10.343Z,0
2022-11-23T09:13:10.393Z,0
2022-11-23T09:14:10.339Z,0
2022-11-23T09:15:10.336Z,0
2022-11-23T09:16:10.343Z,0
2022-11-23T09:17:10.343Z,0
2022-11-23T09:18:10.341Z,0
2022-11-23T09:19:10.339Z,0
2022-11-23T09:20:10.330Z,0
2022-11-23T09:21:10.337Z,0
2022-11-23T09:22:10.347Z,0
2022-11-23T09:23:13.909Z,0
2022-11-23T09:24:10.391Z,0
2022-11-23T09:25:10.388Z,0
2022-11-23T09:26:10.342Z,0
2022-11-23T09:27:10.344Z,0
2022-11-23T09:28:10.346Z,0
2022-11-23T09:29:10.390Z,0
2022-11-23T09:30:10.338Z,0
2022-11-23T09:31:10.337Z,0
2022-11-23T09:32:10.348Z,0
2022-11-23T09:33:10.343Z,0
2022-11-23T09:34:10.344Z,0
2022-11-23T09:35:10.336Z,0
2022-11-23T09:36:10.348Z,0
2022-11-23T09:37:10.347Z,0
2022-11-23T09:38:10.345Z,0
2022-11-23T09:39:10.350Z,0
2022-11-23T09:40:10.345Z,0
2022-11-23T09:41:10.348Z,0
2022-11-23T09:42:10.374Z,0
2022-11-23T09:43:10.352Z,0
2022-11-23T09:44:10.349Z,0
2022-11-23T09:45:10.369Z,0
2022-11-23T09:46:10.359Z,0
2022-11-23T09:47:10.366Z,0
2022-11-23T09:48:10.347Z,0
2022-11-23T09:49:10.354Z,0
2022-11-23T09:50:10.338Z,0
2022-11-23T09:51:10.345Z,0
2022-11-23T09:52:10.362Z,0
2022-11-23T09:53:10.355Z,0
2022-11-23T09:54:10.363Z,0
2022-11-23T09:55:10.372Z,0
2022-11-23T09:56:10.352Z,0
2022-11-23T09:57:10.366Z,0
2022-11-23T09:58:10.365Z,0
2022-11-23T09:59:10.377Z,0
2022-11-23T10:00:10.367Z,0
2022-11-23T10:01:10.450Z,0
2022-11-23T10:02:10.367Z,0
2022-11-23T10:03:10.366Z,0
2022-11-23T10:04:10.372Z,0
2022-11-23T10:05:10.369Z,0
2022-11-23T10:06:10.361Z,0
2022-11-23T10:07:10.429Z,0
2022-11-23T10:08:10.371Z,0
2022-11-23T10:09:10.373Z,0
2022-11-23T10:10:10.366Z,0
2022-11-23T10:11:10.385Z,0
2022-11-23T10:12:10.371Z,0
2022-11-23T10:13:10.363Z,0
2022-11-23T10:14:10.363Z,0
2022-11-23T10:15:10.364Z,0
2022-11-23T10:16:10.376Z,0
2022-11-23T10:17:10.406Z,0
2022-11-23T10:18:10.377Z,0
2022-11-23T10:19:10.384Z,0
2022-11-23T10:20:10.371Z,0
2022-11-23T10:21:10.385Z,0
2022-11-23T10:22:10.372Z,0
2022-11-23T10:23:10.370Z,0
2022-11-23T10:24:10.379Z,0
2022-11-23T10:25:10.382Z,0
2022-11-23T10:26:10.374Z,0
2022-11-23T10:27:10.378Z,0
2022-11-23T10:28:10.379Z,0
2022-11-23T10:29:10.374Z,0
2022-11-23T10:30:10.386Z,0
2022-11-23T10:31:10.382Z,0
2022-11-23T10:32:10.381Z,0
2022-11-23T10:33:10.417Z,0
2022-11-23T10:34:10.383Z,0
2022-11-23T10:35:10.385Z,0
2022-11-23T10:36:10.375Z,0
2022-11-23T10:37:10.381Z,0
2022-11-23T10:38:13.634Z,0
2022-11-23T10:39:10.386Z,0
2022-11-23T10:40:10.388Z,0
2022-11-23T10:41:10.381Z,0
2022-11-23T10:42:10.392Z,0
2022-11-23T10:43:10.379Z,0
2022-11-23T10:44:10.388Z,0
2022-11-23T10:45:10.391Z,0
2022-11-23T10:46:10.396Z,0
2022-11-23T10:47:10.385Z,0
2022-11-23T10:48:10.390Z,0
2022-11-23T10:49:10.426Z,0
2022-11-23T10:50:10.387Z,0
2022-11-23T10:51:10.389Z,0
2022-11-23T10:52:10.387Z,0
2022-11-23T10:53:10.385Z,0
2022-11-23T10:54:10.394Z,0
2022-11-23T10:55:10.387Z,0
2022-11-23T10:56:10.395Z,0
2022-11-23T10:57:10.387Z,0
2022-11-23T10:58:10.392Z,0
2022-11-23T10:59:10.481Z,0
2022-11-23T11:00:10.389Z,0
2022-11-23T11:01:10.393Z,0
2022-11-23T11:02:10.444Z,0
2022-11-23T11:03:10.388Z,0
2022-11-23T11:04:10.382Z,0
2022-11-23T11:05:10.446Z,0
2022-11-23T11:06:11.327Z,0
2022-11-23T11:07:10.417Z,0
2022-11-23T11:08:10.395Z,0
2022-11-23T11:09:13.488Z,0
2022-11-23T11:10:10.388Z,0
2022-11-23T11:11:10.387Z,0
2022-11-23T11:12:10.385Z,0
2022-11-23T11:13:10.388Z,0
2022-11-23T11:14:10.385Z,0
2022-11-23T11:15:11.903Z,0
2022-11-23T11:16:10.383Z,0
2022-11-23T11:17:10.391Z,0
2022-11-23T11:18:10.414Z,0
2022-11-23T11:19:10.390Z,0
2022-11-23T11:20:10.392Z,0
2022-11-23T11:21:10.414Z,0
2022-11-23T11:22:10.387Z,0
2022-11-23T11:23:10.399Z,0
2022-11-23T11:24:10.409Z,0
2022-11-23T11:25:10.397Z,0
2022-11-23T11:26:10.395Z,0
2022-11-23T11:27:10.395Z,0
2022-11-23T11:28:10.399Z,0
2022-11-23T11:29:10.391Z,0
2022-11-23T11:30:10.395Z,0
2022-11-23T11:31:10.402Z,0
2022-11-23T11:32:10.405Z,0
2022-11-23T11:33:10.401Z,0
2022-11-23T11:34:10.397Z,0
2022-11-23T11:35:10.404Z,0
2022-11-23T11:36:10.403Z,0
2022-11-23T11:37:10.434Z,0
2022-11-23T11:38:10.403Z,0
2022-11-23T11:39:19.048Z,0
2022-11-23T11:40:10.409Z,0
2022-11-23T11:41:10.406Z,0
2022-11-23T11:42:10.412Z,0
2022-11-23T11:43:10.405Z,0
2022-11-23T11:44:10.405Z,0
2022-11-23T11:45:10.402Z,0
2022-11-23T11:46:28.386Z,0
2022-11-23T11:47:10.420Z,0
2022-11-23T11:48:10.406Z,0
2022-11-23T11:49:10.409Z,0
2022-11-23T11:50:10.421Z,0
2022-11-23T11:51:10.412Z,0
2022-11-23T11:52:10.406Z,0
2022-11-23T11:53:10.437Z,0
2022-11-23T11:54:10.404Z,0
2022-11-23T11:55:10.498Z,0
2022-11-23T11:56:10.413Z,0
2022-11-23T11:57:10.437Z,0
2022-11-23T11:58:10.415Z,0
2022-11-23T11:59:10.434Z,0
2022-11-23T12:00:10.413Z,0
2022-11-23T12:01:10.413Z,0
2022-11-23T12:02:10.421Z,0
2022-11-23T12:03:10.508Z,0
2022-11-23T12:04:10.413Z,0
2022-11-23T12:05:10.412Z,0
2022-11-23T12:06:10.416Z,0
2022-11-23T12:07:10.474Z,0
2022-11-23T12:08:10.418Z,0
2022-11-23T12:09:10.444Z,0
2022-11-23T12:10:10.413Z,0
2022-11-23T12:11:10.423Z,0
2022-11-23T12:12:10.418Z,3.1
2022-11-23T12:13:10.413Z,2.3000000000000003
2022-11-23T12:14:10.420Z,2.2
2022-11-23T12:15:26.536Z,0
2022-11-23T12:16:10.415Z,0
2022-11-23T12:17:31.780Z,0
2022-11-23T12:18:11.741Z,0
2022-11-23T12:19:10.421Z,0
2022-11-23T12:20:10.424Z,0
2022-11-23T12:21:10.435Z,0
2022-11-23T12:22:10.487Z,0
2022-11-23T12:23:10.429Z,0
2022-11-23T12:24:10.425Z,0
2022-11-23T12:25:10.457Z,0
2022-11-23T12:26:10.432Z,0
2022-11-23T12:27:10.413Z,0
2022-11-23T12:28:10.429Z,0
2022-11-23T12:29:10.426Z,0
2022-11-23T12:30:10.501Z,0
2022-11-23T12:31:10.425Z,0
2022-11-23T12:32:10.421Z,0
2022-11-23T12:33:10.433Z,0
2022-11-23T12:34:10.427Z,0
2022-11-23T12:35:10.412Z,0
2022-11-23T12:36:10.425Z,0
2022-11-23T12:37:10.428Z,0
2022-11-23T12:38:10.426Z,0
2022-11-23T12:39:10.429Z,0
2022-11-23T12:40:10.494Z,0
2022-11-23T12:41:10.457Z,0
2022-11-23T12:42:10.445Z,0
2022-11-23T12:43:10.437Z,0
2022-11-23T12:44:10.446Z,0
2022-11-23T12:45:10.445Z,0
2022-11-23T12:46:10.445Z,0
2022-11-23T12:47:10.451Z,0
2022-11-23T12:48:10.452Z,0
2022-11-23T12:49:10.449Z,0
2022-11-23T12:50:10.455Z,0
2022-11-23T12:51:10.537Z,0
2022-11-23T12:52:10.462Z,0
2022-11-23T12:53:10.461Z,0
2022-11-23T12:54:10.489Z,1.6
2022-11-23T12:55:12.858Z,0
2022-11-23T12:56:10.472Z,0
2022-11-23T12:57:10.502Z,0
2022-11-23T12:58:10.463Z,3
2022-11-23T12:59:10.455Z,0.9
2022-11-23T13:00:10.460Z,0
2022-11-23T13:01:10.576Z,5.9
2022-11-23T13:02:10.498Z,3.6
2022-11-23T13:03:10.469Z,4.3
2022-11-23T13:04:10.469Z,3.3000000000000003
2022-11-23T13:05:10.472Z,1.4000000000000001
2022-11-23T13:06:10.466Z,0
2022-11-23T13:07:27.962Z,0
2022-11-23T13:08:10.491Z,0
2022-11-23T13:09:10.474Z,0
2022-11-23T13:10:10.482Z,0
2022-11-23T13:11:10.489Z,3.4000000000000004
2022-11-23T13:12:10.481Z,3
2022-11-23T13:13:15.532Z,2.6
2022-11-23T13:14:10.481Z,2.9000000000000004
2022-11-23T13:15:10.475Z,4.1000000000000005
2022-11-23T13:16:10.675Z,4.1000000000000005
2022-11-23T13:17:10.622Z,2.6
2022-11-23T13:18:10.497Z,0
2022-11-23T13:19:10.495Z,3.3000000000000003
2022-11-23T13:20:10.500Z,0.7000000000000001
2022-11-23T13:21:10.495Z,0
2022-11-23T13:22:10.494Z,0.9
2022-11-23T13:23:10.520Z,0.6000000000000001
2022-11-23T13:24:10.522Z,0
2022-11-23T13:25:10.500Z,1.4000000000000001
2022-11-23T13:26:10.509Z,2
2022-11-23T13:27:10.509Z,2
2022-11-23T13:28:10.505Z,1.4000000000000001
2022-11-23T13:29:10.575Z,0.4
2022-11-23T13:30:10.512Z,3.4000000000000004
2022-11-23T13:31:15.240Z,1.5
2022-11-23T13:32:10.557Z,3.1
2022-11-23T13:33:10.511Z,0
2022-11-23T13:34:10.507Z,0
2022-11-23T13:35:10.515Z,0
2022-11-23T13:36:15.244Z,0
2022-11-23T13:37:12.490Z,0
2022-11-23T13:38:10.518Z,0
2022-11-23T13:39:10.519Z,0
2022-11-23T13:40:10.532Z,0
2022-11-23T13:41:10.543Z,0
2022-11-23T13:42:10.528Z,0
2022-11-23T13:43:10.532Z,0
2022-11-23T13:44:10.527Z,0
2022-11-23T13:45:10.557Z,0
2022-11-23T13:46:10.681Z,0
2022-11-23T13:47:10.532Z,0
2022-11-23T13:48:16.062Z,0
2022-11-23T13:49:10.543Z,0
2022-11-23T13:50:10.547Z,0
2022-11-23T13:51:10.535Z,0
2022-11-23T13:52:10.539Z,0
2022-11-23T13:53:10.535Z,0
2022-11-23T13:54:10.540Z,0
2022-11-23T13:55:11.002Z,0
2022-11-23T13:56:10.543Z,0
2022-11-23T13:57:10.549Z,0
2022-11-23T13:58:10.546Z,0
2022-11-23T13:59:10.549Z,0
2022-11-23T14:00:10.561Z,0
2022-11-23T14:01:10.638Z,0
2022-11-23T14:02:10.594Z,0
2022-11-23T14:03:10.554Z,0
2022-11-23T14:04:10.557Z,0
2022-11-23T14:05:10.556Z,0
2022-11-23T14:06:10.567Z,0
2022-11-23T14:07:10.588Z,0
2022-11-23T14:08:10.564Z,0
2022-11-23T14:09:10.574Z,0
2022-11-23T14:10:10.572Z,0
2022-11-23T14:11:10.560Z,0
2022-11-23T14:12:10.572Z,0
2022-11-23T14:13:10.564Z,0
2022-11-23T14:14:10.571Z,0
2022-11-23T14:15:10.578Z,0
2022-11-23T14:16:10.666Z,0
2022-11-23T14:17:10.609Z,0
2022-11-23T14:18:10.591Z,0
2022-11-23T14:19:10.578Z,0
2022-11-23T14:20:10.590Z,0
2022-11-23T14:21:10.577Z,0
2022-11-23T14:22:10.584Z,0
2022-11-23T14:23:10.588Z,0
2022-11-23T14:24:15.524Z,0
2022-11-23T14:25:10.585Z,0
2022-11-23T14:26:10.586Z,0
2022-11-23T14:27:39.373Z,0
2022-11-23T14:28:10.588Z,0
2022-11-23T14:29:10.586Z,0
2022-11-23T14:30:10.596Z,0
2022-11-23T14:31:10.623Z,0
2022-11-23T14:32:10.617Z,0
2022-11-23T14:33:10.616Z,0
2022-11-23T14:34:10.596Z,0
2022-11-23T14:35:10.597Z,0
2022-11-23T14:36:10.612Z,0
2022-11-23T14:37:10.618Z,0
2022-11-23T14:38:10.596Z,0